Latest Weather Observations for Hay Airport

IDN60801

Issued at 9:35 pm EST Tuesday 2 September 2014 (issued every 30 minutes, with the page automatically refreshed every 10 minutes)

About weather observations | Map of weather stations | Latest weather observations for NSW | Other Formats
Station Details ID: 075019 Name: HAY AIRPORT AWS Lat: -34.54 Lon: 144.83 Height: 92.0 m
Data from the previous 72 hours. | See also: Recent months for locations in New South Wales
Date/Time
EST
Temp
°C
App
Temp
°C
Dew
Point
Rel
Hum
%
Delta-T
°C
Wind Press
QNH
hPa
Press
MSL
hPa
Rain
since 9 am
mm
Dir
 
Spd
km/h
Gust
km/h
Spd
kts
Gust
kts
02/09:30pm 9.3 4.4 4.1 70 2.3 SSW 19 22 10 12 1022.0 - 0.0
02/09:00pm 9.9 4.9 3.4 64 2.8 SSW 19 24 10 13 1021.8 1021.8 0.0
02/08:30pm 10.2 5.6 3.5 63 2.9 SSW 17 20 9 11 1021.4 - 0.0
02/08:00pm 11.3 5.1 4.5 63 3.1 SSW 26 39 14 21 1021.3 1021.3 0.0
02/07:30pm 12.2 7.4 4.9 61 3.4 SSW 19 24 10 13 1021.0 - 0.0
02/07:00pm 12.2 7.8 4.7 60 3.4 SSW 17 22 9 12 1020.6 1020.6 0.0
02/06:30pm 12.8 8.3 4.3 56 3.9 SW 17 24 9 13 1020.2 - 0.0
02/06:00pm 13.5 7.1 3.3 50 4.6 SSW 26 33 14 18 1019.8 1019.8 0.0
02/05:30pm 14.7 8.3 3.2 46 5.2 SW 26 39 14 21 1019.3 - 0.0
02/05:00pm 15.3 7.2 3.1 44 5.5 SSW 35 46 19 25 1018.9 1018.9 0.0
02/04:30pm 14.5 6.7 2.7 45 5.3 SSW 33 46 18 25 1018.5 - 0.0
02/04:00pm 15.1 7.4 3.6 46 5.3 SSW 33 43 18 23 1018.3 1018.3 0.0
02/03:30pm 15.7 7.8 4.4 47 5.3 SSW 35 44 19 24 1018.0 - 0.0
02/03:00pm 15.8 7.5 2.2 40 6.1 SSW 35 50 19 27 1017.9 1017.9 0.0
02/02:30pm 15.4 7.3 3.2 44 5.6 SSW 35 46 19 25 1017.9 - 0.0
02/02:00pm 15.5 6.7 3.6 45 5.5 SW 39 48 21 26 1017.7 1017.7 0.0
02/01:30pm 16.0 8.7 5.3 49 5.1 SW 33 43 18 23 1017.7 - 0.0
02/01:00pm 14.3 7.0 5.4 55 4.2 SW 33 46 18 25 1017.8 1017.8 0.0
02/12:30pm 15.1 9.3 6.1 55 4.4 SSW 26 39 14 21 1018.0 - 0.0
02/12:00pm 14.2 8.9 7.0 62 3.5 SSW 24 33 13 18 1018.2 1018.2 0.0
02/11:30am 13.4 6.6 7.0 65 3.1 SW 32 43 17 23 1018.7 - 0.0
02/11:00am 13.6 7.9 8.2 70 2.7 SW 28 41 15 22 1018.8 1018.8 0.0
02/10:30am 12.6 7.3 8.3 75 2.1 SW 26 37 14 20 1018.8 - 0.0
02/10:00am 11.4 5.5 7.5 77 1.9 SW 28 35 15 19 1018.5 1018.5 0.0
02/09:30am 10.9 5.8 7.6 80 1.6 SW 24 30 13 16 1018.4 - 0.0
02/09:00am 9.7 4.6 7.5 86 1.0 SW 24 28 13 15 1018.3 1018.3 5.0
02/08:30am 9.1 4.0 7.5 90 0.8 SW 24 32 13 17 1018.0 - 5.0
02/08:00am 8.0 3.6 7.2 95 0.4 SW 20 28 11 15 1017.5 1017.5 5.0
02/07:30am 6.8 2.4 6.5 98 0.1 SW 19 26 10 14 1017.1 - 5.0
02/07:00am 6.2 2.1 6.1 99 0.0 WSW 17 22 9 12 1016.8 1016.8 5.0
02/06:30am 6.3 1.8 6.2 99 0.0 WSW 19 24 10 13 1016.4 - 5.0
02/06:00am 6.3 1.8 6.2 99 0.0 WSW 19 24 10 13 1016.0 1015.9 5.0
02/05:30am 5.7 2.2 5.6 99 0.0 WSW 13 17 7 9 1015.7 - 5.0
02/05:00am 5.6 2.5 5.5 99 0.0 WSW 11 15 6 8 1015.2 1015.1 5.0
02/04:30am 6.1 2.3 6.0 99 0.0 WSW 15 20 8 11 1014.9 - 5.0
02/04:00am 6.3 3.0 6.2 99 0.0 WSW 13 17 7 9 1014.7 1014.6 5.0
02/03:30am 6.6 2.9 6.5 99 0.0 WSW 15 17 8 9 1014.6 - 4.8
02/03:00am 7.1 3.9 7.0 99 0.0 W 13 17 7 9 1014.5 1014.4 4.8
02/02:30am 7.6 4.9 7.5 99 0.0 WSW 11 13 6 7 1014.4 - 4.8
02/02:00am 8.6 5.4 8.5 99 0.0 SW 15 19 8 10 1014.2 1014.1 4.8
02/01:30am 9.2 5.2 9.1 99 0.0 WSW 20 28 11 15 1014.1 - 4.8
02/01:00am 9.4 5.1 9.3 99 0.0 WSW 22 32 12 17 1014.1 1014.0 4.8
02/12:30am 9.8 5.6 9.7 99 0.1 W 22 30 12 16 1014.2 - 4.8
02/12:00am 9.9 6.1 9.8 99 0.1 W 20 28 11 15 1014.1 1014.0 4.8
 
Date/Time
EST
Temp
°C
App
Temp
°C
Dew
Point
Rel
Hum
%
Delta-T
°C
Wind Press
QNH
hPa
Press
MSL
hPa
Rain
since 9 am
mm
Dir
 
Spd
km/h
Gust
km/h
Spd
kts
Gust
kts
01/11:30pm 10.0 6.4 9.7 98 0.2 WNW 19 26 10 14 1014.1 - 4.8
01/11:00pm 10.1 6.5 9.8 98 0.2 WNW 19 24 10 13 1014.1 1014.0 4.8
01/10:30pm 9.6 6.6 9.3 98 0.1 WNW 15 17 8 9 1014.1 - 4.8
01/10:00pm 10.0 7.9 9.7 98 0.2 WNW 11 17 6 9 1013.9 1013.8 4.8
01/09:30pm 10.7 9.2 10.4 98 0.2 WSW 9 15 5 8 1013.8 - 4.8
01/09:00pm 10.8 8.1 10.5 98 0.2 W 15 17 8 9 1014.2 1014.1 4.8
01/08:30pm 11.0 8.3 10.5 97 0.3 W 15 20 8 11 1014.0 - 4.8
01/08:00pm 11.1 8.8 10.6 97 0.3 WNW 13 15 7 8 1013.7 1013.6 4.6
01/07:30pm 11.1 8.5 10.8 98 0.2 W 15 17 8 9 1013.6 - 4.2
01/07:00pm 11.5 9.4 11.0 97 0.3 W 13 17 7 9 1013.3 1013.2 3.4
01/06:30pm 11.6 9.1 11.0 96 0.3 WSW 15 20 8 11 1012.8 - 2.4
01/06:00pm 11.8 9.7 11.2 96 0.3 WSW 13 19 7 10 1012.5 1012.4 1.8
01/05:30pm 12.0 9.5 11.2 95 0.4 WSW 15 20 8 11 1012.3 - 0.6
01/05:00pm 12.4 8.3 11.5 94 0.5 SW 24 35 13 19 1011.7 1011.6 0.0
01/04:30pm 13.2 8.5 10.7 85 1.3 WSW 26 35 14 19 1011.7 - 0.0
01/04:00pm 13.8 8.6 10.4 80 1.8 WSW 28 33 15 18 1011.6 1011.5 0.0
01/03:30pm 14.3 7.9 9.3 72 2.6 WSW 33 43 18 23 1011.3 - 0.0
01/03:00pm 15.9 9.3 7.7 58 4.1 WSW 32 41 17 22 1010.7 1010.7 0.0
01/02:30pm 16.6 8.8 4.9 46 5.6 WSW 35 44 19 24 1010.4 - 0.0
01/02:00pm 18.6 10.0 2.4 34 7.5 WSW 37 48 20 26 1010.3 1010.3 0.0
01/01:30pm 19.9 11.7 0.4 27 8.7 W 33 43 18 23 1010.0 - 0.0
01/01:00pm 22.4 14.2 -1.0 21 10.4 WNW 32 43 17 23 1010.2 1010.2 0.0
01/12:30pm 22.2 14.1 -0.5 22 10.2 NW 32 39 17 21 1010.2 - 0.0
01/12:00pm 22.1 13.8 -0.6 22 10.1 NW 33 48 18 26 1010.6 1010.6 0.0
01/11:30am 23.1 14.0 -0.4 21 10.6 NW 37 46 20 25 1010.9 - 0.0
01/11:00am 21.5 13.4 0.7 25 9.5 NNW 33 43 18 23 1011.5 1011.4 0.0
01/10:30am 21.5 12.9 0.1 24 9.6 NNW 35 46 19 25 1011.5 - 0.0
01/10:00am 21.2 13.3 1.0 26 9.2 N 32 41 17 22 1012.0 1011.9 0.0
01/09:30am 18.4 10.9 1.4 32 7.7 N 30 37 16 20 1012.3 - 0.0
01/09:00am 16.7 9.6 1.6 36 6.7 N 28 37 15 20 1012.4 1012.4 0.0
01/08:30am 15.3 8.7 1.8 40 6.0 N 26 32 14 17 1012.6 - 0.0
01/08:00am 14.4 8.2 2.0 43 5.5 N 24 30 13 16 1012.6 1012.6 0.0
01/07:30am 13.9 7.6 1.5 43 5.4 N 24 30 13 16 1012.6 - 0.0
01/07:00am 13.7 7.4 1.7 44 5.2 N 24 32 13 17 1012.6 1012.6 0.0
01/06:30am 13.6 7.3 1.6 44 5.2 N 24 32 13 17 1012.4 - 0.0
01/06:00am 13.5 7.6 1.8 45 5.1 N 22 28 12 15 1012.8 1012.8 0.0
01/05:30am 14.1 8.2 2.0 44 5.3 N 22 32 12 17 1012.7 - 0.0
01/05:00am 14.5 8.3 2.1 43 5.5 N 24 30 13 16 1012.5 1012.5 0.0
01/04:30am 15.1 8.5 2.0 41 5.8 N 26 35 14 19 1012.0 - 0.0
01/04:00am 14.2 8.8 2.5 45 5.2 N 20 26 11 14 1012.7 1012.7 0.0
01/03:30am 14.2 8.8 2.5 45 5.2 N 20 28 11 15 1012.7 - 0.0
01/03:00am 14.3 8.5 2.5 45 5.3 NNE 22 30 12 16 1013.0 1013.0 0.0
01/02:30am 14.3 8.9 2.5 45 5.3 N 20 28 11 15 1013.4 - 0.0
01/02:00am 14.6 8.9 2.8 45 5.3 N 22 30 12 16 1013.6 1013.6 0.0
01/01:30am 14.7 9.0 2.6 44 5.4 N 22 30 12 16 1013.9 - 0.0
01/01:00am 14.7 9.3 2.6 44 5.4 N 20 30 11 16 1014.0 1014.0 0.0
01/12:30am 14.5 9.0 1.8 42 5.6 N 20 26 11 14 1013.9 - 0.0
01/12:00am 13.7 8.4 2.0 45 5.1 NNE 19 24 10 13 1014.1 1014.1 0.0
 
Date/Time
EST
Temp
°C
App
Temp
°C
Dew
Point
Rel
Hum
%
Delta-T
°C
Wind Press
QNH
hPa
Press
MSL
hPa
Rain
since 9 am
mm
Dir
 
Spd
km/h
Gust
km/h
Spd
kts
Gust
kts
31/11:30pm 13.6 8.7 1.9 45 5.1 NNE 17 20 9 11 1014.2 - 0.0
31/11:00pm 14.5 9.7 2.4 44 5.4 NNE 17 20 9 11 1014.3 1014.3 0.0
31/10:30pm 15.1 9.7 2.3 42 5.7 NNE 20 24 11 13 1014.7 - 0.0
31/10:00pm 15.2 9.7 2.1 41 5.8 NNE 20 24 11 13 1015.0 1015.1 0.0
31/09:30pm 15.8 10.5 1.9 39 6.2 NNE 19 22 10 12 1015.2 - 0.0
31/09:00pm 16.0 11.1 1.7 38 6.3 NE 17 20 9 11 1015.0 1015.1 0.0
31/08:30pm 15.9 11.6 0.9 36 6.5 NNE 13 17 7 9 1015.2 - 0.0
31/08:00pm 17.0 12.3 1.0 34 7.1 N 15 17 8 9 1015.1 1015.2 0.0
31/07:30pm 17.0 12.7 1.0 34 7.1 N 13 15 7 8 1015.3 - 0.0
31/07:00pm 17.3 13.7 0.9 33 7.2 N 9 13 5 7 1015.3 1015.4 0.0
31/06:30pm 18.3 14.7 0.9 31 7.7 N 9 11 5 6 1015.2 - 0.0
31/06:00pm 19.6 16.0 0.6 28 8.5 N 9 11 5 6 1015.0 1015.1 0.0
31/05:30pm 21.6 16.8 0.2 24 9.7 NNW 15 19 8 10 1014.9 - 0.0
31/05:00pm 23.8 18.7 0.8 22 10.7 N 17 26 9 14 1014.8 1014.9 0.0
31/04:30pm 23.5 18.8 0.6 22 10.6 NNW 15 20 8 11 1014.8 - 0.0
31/04:00pm 24.4 18.9 0.7 21 11.0 N 19 30 10 16 1015.1 1015.2 0.0
31/03:30pm 24.7 19.6 0.9 21 11.2 N 17 30 9 16 1015.3 - 0.0
31/03:00pm 24.4 19.8 1.3 22 10.9 N 15 22 8 12 1015.6 1015.7 0.0
31/02:30pm 24.1 18.8 1.7 23 10.6 N 19 26 10 14 1016.0 - 0.0
31/02:00pm 24.1 18.8 1.7 23 10.6 N 19 26 10 14 1016.4 1016.5 0.0
31/01:30pm 24.1 18.9 2.3 24 10.4 N 19 26 10 14 1016.8 - 0.0
31/01:00pm 23.6 18.1 1.9 24 10.3 N 20 30 11 16 1017.5 1017.6 0.0
31/12:30pm 22.8 17.4 2.3 26 9.7 N 20 30 11 16 1018.1 - 0.0
31/12:00pm 22.3 15.7 1.9 26 9.5 N 26 37 14 20 1018.6 1018.7 0.0
31/11:30am 21.9 14.9 2.1 27 9.3 N 28 37 15 20 1019.0 - 0.0
31/11:00am 21.2 15.1 3.0 30 8.6 N 24 35 13 19 1019.5 1019.6 0.0
31/10:30am 20.0 13.5 2.8 32 8.1 N 26 35 14 19 1019.9 - 0.0
31/10:00am 19.0 12.8 4.4 38 7.0 N 26 33 14 18 1020.4 1020.5 0.0
31/09:30am 17.2 11.7 6.1 48 5.4 N 24 28 13 15 1020.8 - 0.0
31/09:00am 15.3 10.3 6.6 56 4.2 N 22 28 12 15 1020.9 1021.0 0.0
31/08:30am 13.5 8.3 5.7 59 3.7 N 22 30 12 16 1021.0 - 0.0
31/08:00am 11.8 7.0 4.8 62 3.2 N 19 24 10 13 1021.0 1021.1 0.0
31/07:30am 10.2 5.6 3.5 63 2.9 N 17 20 9 11 1020.8 - 0.0
31/07:00am 9.2 5.2 3.0 65 2.7 NNE 13 17 7 9 1020.6 1020.7 0.0
31/06:30am 8.6 3.8 2.6 66 2.5 NNE 17 22 9 12 1020.2 - 0.0
31/06:00am 9.0 4.2 2.6 64 2.7 NNE 17 20 9 11 1019.9 1020.0 0.0
31/05:30am 9.2 4.8 2.5 63 2.8 NNE 15 19 8 10 1019.7 - 0.0
31/05:00am 10.2 5.4 2.8 60 3.2 NNE 17 19 9 10 1019.6 1019.7 0.0
31/04:30am 10.3 5.5 2.4 58 3.4 NNE 17 20 9 11 1019.6 - 0.0
31/04:00am 10.4 5.5 2.3 57 3.5 NNE 17 22 9 12 1019.5 1019.6 0.0
31/03:30am 10.6 6.1 2.2 56 3.6 NNE 15 17 8 9 1019.6 - 0.0
31/03:00am 10.6 6.0 1.7 54 3.7 NE 15 19 8 10 1019.7 1019.8 0.0
31/02:30am 11.5 6.6 2.0 52 4.1 NE 17 20 9 11 1020.0 - 0.0
31/02:00am 11.2 7.0 1.7 52 4.0 NE 13 15 7 8 1020.3 1020.4 0.0
31/01:30am 11.9 7.7 1.8 50 4.3 NE 13 19 7 10 1020.4 - 0.0
31/01:00am 12.6 8.5 2.2 49 4.5 NE 13 17 7 9 1020.6 1020.7 0.0
31/12:30am 12.4 8.4 2.6 51 4.3 NE 13 17 7 9 1020.7 - 0.0
31/12:00am 11.7 8.0 2.2 52 4.1 NE 11 13 6 7 1020.8 1020.9 0.0
 
Date/Time
EST
Temp
°C
App
Temp
°C
Dew
Point
Rel
Hum
%
Delta-T
°C
Wind Press
QNH
hPa
Press
MSL
hPa
Rain
since 9 am
mm
Dir
 
Spd
km/h
Gust
km/h
Spd
kts
Gust
kts
30/11:30pm 12.5 8.5 2.7 51 4.3 ENE 13 15 7 8 1021.1 - 0.0
30/11:00pm 12.9 8.9 3.0 51 4.4 ENE 13 15 7 8 1021.4 1021.5 0.0
30/10:30pm 12.7 9.3 2.0 48 4.6 NE 9 11 5 6 1021.4 - 0.0
30/10:00pm 13.1 9.4 2.1 47 4.8 NE 11 13 6 7 1021.5 1021.6 0.0

Other Formats:

Comma delimited format used in spreadsheet applications
http://www.bom.gov.au/fwo/IDN60801/IDN60801.94702.axf

JavaScript Object Notation format (JSON) in row-major order
http://www.bom.gov.au/fwo/IDN60801/IDN60801.94702.json